createdAt,value
2023-05-10T00:01:03.704Z,8.35
2023-05-10T00:03:30.546Z,7.53
2023-05-10T00:05:57.583Z,8.48
2023-05-10T00:08:24.248Z,9.35
2023-05-10T00:10:51.149Z,7.88
2023-05-10T00:13:17.930Z,9.07
2023-05-10T00:15:44.736Z,8.68
2023-05-10T00:18:11.594Z,9.68
2023-05-10T00:20:38.282Z,9.05
2023-05-10T00:23:04.881Z,11.20
2023-05-10T00:27:58.332Z,9.48
2023-05-10T00:30:25.324Z,11.60
2023-05-10T00:32:52.797Z,10.90
2023-05-10T00:35:19.617Z,10.63
2023-05-10T00:37:46.347Z,9.80
2023-05-10T00:40:13.451Z,8.68
2023-05-10T00:42:41.792Z,9.52
2023-05-10T00:45:09.110Z,9.15
2023-05-10T00:47:36.359Z,7.97
2023-05-10T00:50:03.819Z,9.45
2023-05-10T00:52:31.277Z,8.60
2023-05-10T00:54:59.423Z,9.82
2023-05-10T00:57:26.290Z,9.93
2023-05-10T00:59:53.206Z,9.38
2023-05-10T01:02:20.036Z,9.65
2023-05-10T01:04:47.328Z,10.60
2023-05-10T01:07:14.115Z,10.32
2023-05-10T01:09:41.089Z,10.60
2023-05-10T01:12:08.524Z,10.15
2023-05-10T01:14:37.322Z,9.77
2023-05-10T01:17:05.909Z,9.95
2023-05-10T01:19:36.062Z,10.68
2023-05-10T01:22:11.547Z,11.10
2023-05-10T01:25:10.992Z,8.65
2023-05-10T01:27:49.454Z,9.18
2023-05-10T01:30:31.275Z,8.88
2023-05-10T01:33:12.688Z,7.97
2023-05-10T01:36:08.705Z,8.30
2023-05-10T01:38:43.960Z,7.80
2023-05-10T01:41:21.135Z,7.85
2023-05-10T01:44:06.731Z,6.68
2023-05-10T01:46:38.558Z,6.60
2023-05-10T01:49:31.959Z,6.18
2023-05-10T01:52:10.230Z,5.32
2023-05-10T01:54:39.658Z,6.70
2023-05-10T01:57:09.902Z,6.07
2023-05-10T01:59:41.909Z,6.28
2023-05-10T02:02:12.903Z,6.07
2023-05-10T02:04:41.795Z,5.85
2023-05-10T02:07:10.599Z,5.32
2023-05-10T02:09:38.638Z,5.60
2023-05-10T02:12:06.607Z,5.10
2023-05-10T02:14:36.490Z,5.00
2023-05-10T02:17:06.056Z,4.97
2023-05-10T02:19:34.770Z,5.18
2023-05-10T02:22:02.604Z,5.15
2023-05-10T02:24:30.004Z,5.75
2023-05-10T02:26:57.776Z,4.75
2023-05-10T02:29:26.164Z,4.93
2023-05-10T02:31:56.059Z,5.35
2023-05-10T02:34:24.320Z,6.38
2023-05-10T02:36:53.251Z,6.07
2023-05-10T02:39:25.889Z,6.78
2023-05-10T02:41:54.475Z,6.00
2023-05-10T02:44:23.612Z,5.38
2023-05-10T02:46:50.542Z,5.70
2023-05-10T02:49:17.362Z,5.53
2023-05-10T02:51:51.837Z,5.80
2023-05-10T02:54:25.442Z,5.10
2023-05-10T02:56:57.324Z,5.13
2023-05-10T02:59:24.226Z,5.03
2023-05-10T03:01:50.814Z,5.13
2023-05-10T03:04:18.673Z,3.88
2023-05-10T03:06:45.805Z,3.78
2023-05-10T03:09:16.245Z,3.55
2023-05-10T03:12:03.175Z,2.40
2023-05-10T03:14:39.808Z,2.70
2023-05-10T03:17:35.428Z,2.07
2023-05-10T03:20:10.754Z,2.10
2023-05-10T03:22:48.049Z,2.45
2023-05-10T03:25:17.527Z,1.77
2023-05-10T03:27:45.058Z,1.42
2023-05-10T03:30:13.676Z,2.00
2023-05-10T03:32:40.898Z,1.58
2023-05-10T03:35:13.364Z,1.83
2023-05-10T03:37:40.117Z,1.63
2023-05-10T03:40:07.208Z,1.83
2023-05-10T03:42:36.024Z,1.65
2023-05-10T03:47:30.696Z,1.40
2023-05-10T03:49:58.846Z,1.30
2023-05-10T03:52:25.374Z,1.63
2023-05-10T03:57:19.767Z,2.67
2023-05-10T03:59:46.394Z,2.00
2023-05-10T04:04:39.537Z,1.88
2023-05-10T04:07:06.303Z,1.63
2023-05-10T04:09:33.674Z,1.40
2023-05-10T04:12:01.567Z,1.08
2023-05-10T04:14:28.049Z,1.38
2023-05-10T04:19:21.428Z,0.90
2023-05-10T04:21:47.994Z,1.10
2023-05-10T04:26:40.982Z,0.88
2023-05-10T04:31:35.255Z,1.10
2023-05-10T04:34:01.831Z,0.95
2023-05-10T04:38:55.472Z,1.23
2023-05-10T04:41:21.974Z,1.40
2023-05-10T04:46:17.092Z,1.27
2023-05-10T04:51:10.099Z,1.00
2023-05-10T04:56:03.479Z,1.00
2023-05-10T04:58:30.083Z,1.10
2023-05-10T05:03:23.450Z,0.88
2023-05-10T05:05:50.061Z,2.78
2023-05-10T05:10:43.307Z,0.85
2023-05-10T05:15:36.572Z,1.02
2023-05-10T05:18:03.162Z,1.23
2023-05-10T05:20:33.380Z,1.13
2023-05-10T05:22:59.919Z,1.00
2023-05-10T05:25:26.403Z,1.00
2023-05-10T05:30:19.505Z,1.23
2023-05-10T05:32:48.028Z,1.13
2023-05-10T05:35:14.763Z,1.23
2023-05-10T05:37:41.351Z,1.42
2023-05-10T05:42:34.672Z,1.42
2023-05-10T05:47:27.675Z,1.45
2023-05-10T05:52:20.610Z,2.05
2023-05-10T05:57:13.589Z,1.42
2023-05-10T06:02:11.972Z,1.38
2023-05-10T06:04:39.254Z,2.03
2023-05-10T06:07:06.364Z,1.85
2023-05-10T06:09:32.903Z,1.65
2023-05-10T06:14:26.000Z,1.70
2023-05-10T06:19:19.175Z,1.45
2023-05-10T06:24:12.212Z,1.42
2023-05-10T06:29:05.191Z,1.38
2023-05-10T06:33:58.807Z,1.60
2023-05-10T06:36:27.291Z,1.83
2023-05-10T06:38:53.968Z,2.13
2023-05-10T06:41:21.590Z,1.35
2023-05-10T06:43:49.070Z,1.30
2023-05-10T06:48:42.298Z,1.60
2023-05-10T06:53:35.274Z,1.70
2023-05-10T06:58:28.825Z,1.50
2023-05-10T07:00:55.326Z,2.22
2023-05-10T07:05:48.419Z,2.40
2023-05-10T07:10:41.974Z,2.17
2023-05-10T07:15:35.163Z,1.83
2023-05-10T07:22:55.997Z,2.20
2023-05-10T07:27:49.555Z,1.98
2023-05-10T07:30:16.231Z,2.10
2023-05-10T07:32:43.428Z,2.30
2023-05-10T07:35:09.936Z,2.28
2023-05-10T07:40:03.553Z,3.40
2023-05-10T07:42:30.094Z,2.35
2023-05-10T07:47:23.238Z,2.97
2023-05-10T07:49:50.041Z,2.38
2023-05-10T07:52:16.668Z,2.08
2023-05-10T07:54:43.244Z,2.10
2023-05-10T07:59:36.594Z,2.05
2023-05-10T08:02:03.194Z,2.30
2023-05-10T08:06:56.419Z,2.03
2023-05-10T08:09:24.952Z,2.55
2023-05-10T08:11:51.722Z,2.30
2023-05-10T08:16:44.977Z,2.03
2023-05-10T08:21:38.385Z,1.58
2023-05-10T08:24:05.777Z,1.50
2023-05-10T08:26:33.457Z,1.40
2023-05-10T08:29:00.178Z,1.75
2023-05-10T08:31:26.757Z,1.58
2023-05-10T08:33:53.708Z,1.83
2023-05-10T08:36:25.097Z,2.22
2023-05-10T08:38:52.870Z,1.70
2023-05-10T08:41:21.989Z,1.85
2023-05-10T08:43:48.821Z,2.05
2023-05-10T08:46:20.917Z,1.63
2023-05-10T08:48:49.057Z,1.75
2023-05-10T08:51:19.207Z,1.63
2023-05-10T08:53:46.777Z,1.58
2023-05-10T08:56:13.732Z,1.30
2023-05-10T08:58:40.455Z,1.27
2023-05-10T09:01:08.485Z,1.48
2023-05-10T09:03:36.182Z,1.30
2023-05-10T09:06:02.778Z,1.50
2023-05-10T09:08:30.373Z,1.40
2023-05-10T09:10:57.490Z,1.60
2023-05-10T09:13:25.561Z,1.85
2023-05-10T09:15:52.965Z,1.63
2023-05-10T09:18:19.735Z,1.30
2023-05-10T09:20:46.409Z,1.65
2023-05-10T09:25:39.734Z,1.67
2023-05-10T09:28:10.595Z,1.52
2023-05-10T09:30:37.522Z,1.60
2023-05-10T09:33:04.493Z,1.73
2023-05-10T09:35:34.430Z,1.20
2023-05-10T09:38:03.891Z,2.13
2023-05-10T09:40:31.050Z,2.03
2023-05-10T09:43:00.318Z,2.65
2023-05-10T09:45:36.184Z,2.22
2023-05-10T09:48:05.095Z,2.35
2023-05-10T09:50:31.774Z,1.83
2023-05-10T09:53:04.490Z,2.50
2023-05-10T09:55:37.269Z,2.15
2023-05-10T09:58:03.845Z,1.42
2023-05-10T10:00:36.484Z,1.25
2023-05-10T10:03:04.269Z,1.73
2023-05-10T10:05:36.307Z,1.60
2023-05-10T10:08:06.333Z,1.52
2023-05-10T10:10:34.146Z,1.60
2023-05-10T10:13:01.132Z,1.38
2023-05-10T10:15:28.066Z,1.45
2023-05-10T10:17:55.002Z,1.17
2023-05-10T10:20:23.515Z,1.70
2023-05-10T10:22:50.396Z,1.75
2023-05-10T10:25:19.167Z,1.30
2023-05-10T10:27:55.145Z,1.42
2023-05-10T10:30:31.071Z,1.55
2023-05-10T10:33:34.924Z,1.75
2023-05-10T10:36:03.612Z,1.40
2023-05-10T10:38:48.523Z,1.40
2023-05-10T10:41:32.914Z,1.80
2023-05-10T10:44:27.530Z,1.13
2023-05-10T10:47:13.054Z,1.25
2023-05-10T10:49:46.576Z,1.63
2023-05-10T10:52:24.861Z,1.20
2023-05-10T10:55:00.302Z,1.30
2023-05-10T10:57:27.657Z,1.30
2023-05-10T11:00:29.401Z,1.45
2023-05-10T11:03:01.124Z,1.75
2023-05-10T11:05:33.720Z,1.85
2023-05-10T11:08:01.347Z,1.83
2023-05-10T11:10:28.290Z,1.65
2023-05-10T11:13:06.687Z,1.17
2023-05-10T11:15:39.022Z,1.60
2023-05-10T11:18:24.565Z,1.40
2023-05-10T11:21:10.369Z,1.40
2023-05-10T11:23:45.764Z,1.40
2023-05-10T11:26:12.857Z,1.17
2023-05-10T11:28:45.770Z,1.15
2023-05-10T11:31:15.698Z,1.38
2023-05-10T11:33:46.554Z,1.20
2023-05-10T11:36:18.238Z,2.33
2023-05-10T11:38:45.240Z,1.10
2023-05-10T11:41:13.266Z,1.15
2023-05-10T11:43:40.922Z,1.75
2023-05-10T11:46:11.428Z,1.25
2023-05-10T11:48:40.927Z,1.13
2023-05-10T11:51:08.700Z,1.15
2023-05-10T11:53:35.398Z,1.27
2023-05-10T11:56:20.027Z,1.38
2023-05-10T11:58:48.067Z,1.33
2023-05-10T12:01:14.757Z,0.93
2023-05-10T12:03:41.545Z,1.52
2023-05-10T12:06:08.771Z,1.25
2023-05-10T12:08:35.705Z,1.38
2023-05-10T12:11:11.277Z,1.30
2023-05-10T12:13:42.501Z,1.25
2023-05-10T12:16:15.488Z,1.50
2023-05-10T12:18:43.572Z,1.58
2023-05-10T12:21:13.758Z,1.70
2023-05-10T12:23:40.765Z,2.25
2023-05-10T12:26:09.632Z,2.22
2023-05-10T12:28:36.557Z,1.60
2023-05-10T12:31:03.972Z,1.75
2023-05-10T12:33:43.434Z,1.90
2023-05-10T12:36:12.200Z,2.15
2023-05-10T12:38:44.325Z,2.13
2023-05-10T12:41:12.801Z,2.13
2023-05-10T12:43:40.816Z,2.28
2023-05-10T12:46:17.969Z,2.00
2023-05-10T12:48:46.395Z,2.15
2023-05-10T12:51:14.184Z,1.90
2023-05-10T12:53:42.748Z,2.45
2023-05-10T12:56:11.152Z,2.30
2023-05-10T13:01:05.135Z,2.58
2023-05-10T13:03:31.864Z,2.35
2023-05-10T13:05:58.495Z,2.33
2023-05-10T13:08:25.170Z,2.28
2023-05-10T13:10:51.701Z,2.53
2023-05-10T13:15:45.770Z,2.15
2023-05-10T13:20:39.200Z,2.15
2023-05-10T13:23:05.804Z,1.58
2023-05-10T13:25:32.384Z,1.60
2023-05-10T13:30:25.616Z,2.03
2023-05-10T13:35:18.937Z,2.88
2023-05-10T13:37:45.483Z,2.15
2023-05-10T13:42:39.318Z,1.95
2023-05-10T13:45:06.492Z,1.98
2023-05-10T13:47:33.135Z,1.67
2023-05-10T13:49:59.767Z,1.48
2023-05-10T13:54:55.892Z,1.58
2023-05-10T13:57:24.185Z,1.55
2023-05-10T13:59:51.342Z,2.00
2023-05-10T14:02:18.350Z,2.17
2023-05-10T14:04:45.178Z,1.63
2023-05-10T14:07:12.156Z,1.95
2023-05-10T14:09:38.686Z,1.30
2023-05-10T14:14:31.824Z,1.52
2023-05-10T14:19:24.804Z,1.58
2023-05-10T14:24:19.539Z,1.20
2023-05-10T14:29:12.856Z,1.90
2023-05-10T14:31:39.667Z,1.40
2023-05-10T14:34:06.687Z,1.20
2023-05-10T14:36:33.535Z,1.20
2023-05-10T14:39:00.385Z,1.45
2023-05-10T14:41:26.915Z,1.30
2023-05-10T14:46:20.740Z,1.40
2023-05-10T14:48:47.509Z,1.33
2023-05-10T14:51:14.262Z,1.63
2023-05-10T14:53:41.181Z,1.55
2023-05-10T14:56:08.116Z,1.58
2023-05-10T14:58:34.759Z,1.77
2023-05-10T15:01:01.826Z,1.67
2023-05-10T15:03:29.229Z,2.25
2023-05-10T15:05:58.600Z,2.55
2023-05-10T15:08:28.732Z,2.00
2023-05-10T15:10:56.913Z,2.72
2023-05-10T15:13:23.521Z,2.10
2023-05-10T15:18:16.640Z,2.30
2023-05-10T15:20:43.283Z,2.35
2023-05-10T15:25:38.183Z,3.13
2023-05-10T15:28:05.225Z,1.92
2023-05-10T15:30:31.999Z,1.52
2023-05-10T15:32:58.961Z,1.33
2023-05-10T15:35:26.933Z,1.45
2023-05-10T15:37:53.538Z,2.00
2023-05-10T15:40:20.390Z,2.00
2023-05-10T15:42:46.925Z,1.80
2023-05-10T15:45:13.978Z,1.45
2023-05-10T15:47:40.622Z,1.20
2023-05-10T15:50:07.785Z,1.50
2023-05-10T15:52:34.681Z,1.80
2023-05-10T15:55:01.311Z,1.42
2023-05-10T15:59:54.467Z,1.77
2023-05-10T16:04:49.407Z,2.70
2023-05-10T16:09:42.631Z,2.65
2023-05-10T16:12:09.225Z,2.20
2023-05-10T16:17:04.990Z,2.22
2023-05-10T16:19:31.783Z,2.47
2023-05-10T16:24:25.981Z,2.90
2023-05-10T16:26:52.515Z,4.10
2023-05-10T16:31:46.315Z,2.25
2023-05-10T16:34:12.886Z,2.47
2023-05-10T16:39:05.896Z,1.70
2023-05-10T16:44:03.604Z,2.05
2023-05-10T16:46:30.275Z,3.40
2023-05-10T16:48:56.971Z,2.30
2023-05-10T16:51:23.532Z,3.15
2023-05-10T16:56:18.357Z,1.80
2023-05-10T16:58:44.907Z,2.70
2023-05-10T17:03:38.038Z,3.03
2023-05-10T17:06:06.095Z,2.10
2023-05-10T17:08:33.435Z,2.15
2023-05-10T17:11:04.005Z,2.03
2023-05-10T17:13:31.842Z,2.15
2023-05-10T17:15:58.561Z,2.10
2023-05-10T17:18:26.568Z,2.70
2023-05-10T17:20:53.242Z,2.05
2023-05-10T17:25:46.313Z,2.20
2023-05-10T17:28:12.978Z,2.47
2023-05-10T17:30:39.573Z,2.65
2023-05-10T17:35:32.760Z,3.40
2023-05-10T17:40:25.983Z,3.45
2023-05-10T17:42:52.659Z,3.40
2023-05-10T17:45:19.565Z,3.20
2023-05-10T17:47:46.527Z,4.05
2023-05-10T17:50:13.174Z,5.10
2023-05-10T17:55:06.834Z,3.53
2023-05-10T17:57:33.604Z,3.90
2023-05-10T18:00:00.243Z,4.50
2023-05-10T18:02:26.826Z,4.43
2023-05-10T18:07:21.973Z,4.38
2023-05-10T18:09:48.488Z,4.18
2023-05-10T18:14:41.864Z,3.30
2023-05-10T18:17:09.627Z,3.50
2023-05-10T18:19:36.377Z,3.60
2023-05-10T18:24:38.989Z,3.97
2023-05-10T18:27:07.610Z,3.50
2023-05-10T18:29:34.245Z,3.28
2023-05-10T18:32:00.934Z,3.05
2023-05-10T18:34:27.489Z,2.95
2023-05-10T18:39:20.630Z,2.50
2023-05-10T18:41:47.360Z,2.85
2023-05-10T18:44:14.533Z,2.70
2023-05-10T18:46:42.343Z,3.10
2023-05-10T18:49:09.261Z,3.35
2023-05-10T18:51:36.062Z,3.00
2023-05-10T18:54:02.665Z,2.75
2023-05-10T18:58:56.036Z,2.90
2023-05-10T19:01:22.671Z,3.53
2023-05-10T19:03:49.213Z,3.35
2023-05-10T19:08:42.390Z,2.65
2023-05-10T19:11:09.210Z,3.33
2023-05-10T19:13:35.849Z,3.03
2023-05-10T19:16:07.024Z,3.15
2023-05-10T19:18:34.018Z,3.70
2023-05-10T19:21:04.504Z,3.38
2023-05-10T19:23:34.820Z,3.50
2023-05-10T19:26:01.673Z,3.38
2023-05-10T19:28:28.477Z,3.67
2023-05-10T19:30:55.031Z,3.38
2023-05-10T19:35:51.313Z,4.55
2023-05-10T19:38:24.215Z,4.18
2023-05-10T19:40:57.518Z,4.20
2023-05-10T19:43:28.381Z,4.20
2023-05-10T19:45:57.947Z,4.22
2023-05-10T19:48:24.805Z,4.28
2023-05-10T19:50:52.547Z,3.80
2023-05-10T19:53:19.208Z,3.65
2023-05-10T19:55:46.089Z,4.35
2023-05-10T19:58:12.614Z,4.20
2023-05-10T20:03:08.424Z,4.40
2023-05-10T20:05:35.727Z,4.25
2023-05-10T20:10:28.735Z,5.28
2023-05-10T20:15:23.188Z,5.10
2023-05-10T20:17:51.292Z,4.75
2023-05-10T20:20:18.327Z,4.53
2023-05-10T20:22:45.808Z,4.18
2023-05-10T20:25:13.003Z,4.25
2023-05-10T20:27:39.574Z,4.53
2023-05-10T20:32:34.266Z,3.92
2023-05-10T20:35:01.568Z,5.45
2023-05-10T20:37:28.661Z,4.60
2023-05-10T20:39:55.551Z,5.85
2023-05-10T20:42:22.933Z,4.72
2023-05-10T20:44:52.362Z,4.97
2023-05-10T20:47:19.159Z,4.65
2023-05-10T20:49:46.100Z,4.88
2023-05-10T20:54:39.298Z,4.45
2023-05-10T20:59:32.491Z,5.82
2023-05-10T21:01:59.300Z,4.75
2023-05-10T21:04:26.118Z,5.40
2023-05-10T21:06:53.255Z,4.05
2023-05-10T21:09:19.879Z,5.15
2023-05-10T21:11:46.600Z,4.88
2023-05-10T21:14:13.177Z,4.28
2023-05-10T21:19:07.489Z,4.70
2023-05-10T21:21:34.541Z,4.53
2023-05-10T21:24:01.312Z,4.32
2023-05-10T21:26:28.681Z,4.25
2023-05-10T21:28:55.456Z,4.50
2023-05-10T21:31:21.987Z,3.88
2023-05-10T21:33:48.630Z,4.07
2023-05-10T21:38:44.288Z,4.22
2023-05-10T21:41:10.969Z,5.00
2023-05-10T21:43:37.517Z,4.65
2023-05-10T21:48:30.880Z,5.05
2023-05-10T21:50:57.389Z,5.13
2023-05-10T21:55:50.458Z,5.38
2023-05-10T21:58:16.988Z,4.60
2023-05-10T22:18:11.986Z,5.43
2023-05-10T22:20:38.665Z,5.28
2023-05-10T22:23:05.507Z,5.15
2023-05-10T22:25:32.287Z,6.28
2023-05-10T22:27:58.814Z,5.50
2023-05-10T22:32:52.004Z,5.63
2023-05-10T22:37:45.040Z,5.05
2023-05-10T22:42:38.425Z,5.80
2023-05-10T22:45:05.801Z,5.50
2023-05-10T22:47:33.576Z,5.57
2023-05-10T22:50:03.238Z,4.45
2023-05-10T22:52:29.930Z,5.03
2023-05-10T22:54:56.892Z,4.72
2023-05-10T22:57:23.400Z,5.18
2023-05-10T23:02:16.628Z,5.25
2023-05-10T23:04:43.440Z,5.65
2023-05-10T23:07:10.219Z,6.18
2023-05-10T23:09:36.893Z,5.93
2023-05-10T23:12:03.599Z,5.75
2023-05-10T23:14:30.281Z,4.93
2023-05-10T23:16:56.900Z,6.40
2023-05-10T23:24:17.639Z,5.85
2023-05-10T23:29:12.913Z,6.65
2023-05-10T23:31:45.216Z,5.25
2023-05-10T23:34:12.406Z,6.22
2023-05-10T23:36:39.354Z,5.72
2023-05-10T23:39:06.706Z,5.93
2023-05-10T23:41:33.360Z,5.90
2023-05-10T23:46:26.807Z,5.80
2023-05-10T23:48:53.352Z,6.70
2023-05-10T23:53:46.327Z,6.65
2023-05-10T23:58:39.385Z,6.68
